createdAt,value
2023-05-05T00:02:25.682Z,88.03
2023-05-05T00:04:52.909Z,87.95
2023-05-05T00:07:20.061Z,87.02
2023-05-05T00:09:48.589Z,87.32
2023-05-05T00:12:15.770Z,88.10
2023-05-05T00:14:42.945Z,87.20
2023-05-05T00:17:10.270Z,87.09
2023-05-05T00:19:37.533Z,86.99
2023-05-05T00:22:04.645Z,87.95
2023-05-05T00:24:31.851Z,87.37
2023-05-05T00:27:00.353Z,88.02
2023-05-05T00:29:27.520Z,87.93
2023-05-05T00:31:54.687Z,88.50
2023-05-05T00:34:21.843Z,88.35
2023-05-05T00:36:49.132Z,88.65
2023-05-05T00:39:16.292Z,87.70
2023-05-05T00:41:43.446Z,87.85
2023-05-05T00:44:12.033Z,88.26
2023-05-05T00:46:39.354Z,87.75
2023-05-05T00:49:06.962Z,87.81
2023-05-05T00:51:34.311Z,86.38
2023-05-05T00:54:01.779Z,86.51
2023-05-05T00:56:29.475Z,86.13
2023-05-05T00:58:56.894Z,88.30
2023-05-05T01:01:25.564Z,89.08
2023-05-05T01:03:53.125Z,89.65
2023-05-05T01:06:37.878Z,89.74
2023-05-05T01:09:15.221Z,89.03
2023-05-05T01:11:51.353Z,88.13
2023-05-05T01:14:24.664Z,88.11
2023-05-05T01:16:57.950Z,89.12
2023-05-05T01:19:53.242Z,88.87
2023-05-05T01:22:24.571Z,89.31
2023-05-05T01:25:14.843Z,90.35
2023-05-05T01:28:19.428Z,90.12
2023-05-05T01:31:04.461Z,90.19
2023-05-05T01:33:36.697Z,89.91
2023-05-05T01:36:10.164Z,89.56
2023-05-05T01:38:41.044Z,89.18
2023-05-05T01:41:13.015Z,88.66
2023-05-05T01:43:44.400Z,88.87
2023-05-05T01:46:13.161Z,89.31
2023-05-05T01:48:45.095Z,89.55
2023-05-05T01:51:13.310Z,89.28
2023-05-05T01:53:41.601Z,89.36
2023-05-05T01:56:11.778Z,88.37
2023-05-05T01:58:41.706Z,88.30
2023-05-05T02:01:09.713Z,87.44
2023-05-05T02:03:39.038Z,87.88
2023-05-05T02:06:08.839Z,88.12
2023-05-05T02:08:39.186Z,89.06
2023-05-05T02:11:09.413Z,89.87
2023-05-05T02:13:39.231Z,89.40
2023-05-05T02:16:08.000Z,90.20
2023-05-05T02:18:35.470Z,90.58
2023-05-05T02:21:03.074Z,89.51
2023-05-05T02:23:31.616Z,90.42
2023-05-05T02:26:06.177Z,90.64
2023-05-05T02:28:39.683Z,90.97
2023-05-05T02:31:08.423Z,91.30
2023-05-05T02:33:37.992Z,91.46
2023-05-05T02:36:10.508Z,91.63
2023-05-05T02:38:48.420Z,91.74
2023-05-05T02:41:19.830Z,90.81
2023-05-05T02:43:49.844Z,91.63
2023-05-05T02:46:17.999Z,91.19
2023-05-05T02:48:47.403Z,90.57
2023-05-05T02:51:15.245Z,90.60
2023-05-05T02:53:42.712Z,92.26
2023-05-05T02:56:21.228Z,92.07
2023-05-05T02:59:04.045Z,93.13
2023-05-05T03:01:45.004Z,93.33
2023-05-05T03:04:15.850Z,92.98
2023-05-05T03:06:53.518Z,92.50
2023-05-05T03:09:27.565Z,93.68
2023-05-05T03:12:01.605Z,94.35
2023-05-05T03:14:34.873Z,94.64
2023-05-05T03:17:03.082Z,95.17
2023-05-05T03:19:31.396Z,95.40
2023-05-05T03:22:03.380Z,94.72
2023-05-05T03:24:31.429Z,95.05
2023-05-05T03:27:05.862Z,95.41
2023-05-05T03:29:37.295Z,95.85
2023-05-05T03:32:08.461Z,96.24
2023-05-05T03:34:35.778Z,96.83
2023-05-05T03:37:03.657Z,96.36
2023-05-05T03:39:30.884Z,96.44
2023-05-05T03:41:58.721Z,97.56
2023-05-05T03:44:31.143Z,99.27
2023-05-05T03:46:58.327Z,100.00
2023-05-05T03:49:26.097Z,100.00
2023-05-05T03:51:53.466Z,100.00
2023-05-05T03:54:20.823Z,100.00
2023-05-05T03:56:48.123Z,100.00
2023-05-05T03:59:15.271Z,99.03
2023-05-05T04:01:43.874Z,100.00
2023-05-05T04:04:11.181Z,100.00
2023-05-05T04:06:38.363Z,100.00
2023-05-05T04:09:05.805Z,100.00
2023-05-05T04:11:32.959Z,100.00
2023-05-05T04:14:00.748Z,99.73
2023-05-05T04:16:29.905Z,98.63
2023-05-05T04:19:00.221Z,98.98
2023-05-05T04:21:27.941Z,99.01
2023-05-05T04:23:55.961Z,98.36
2023-05-05T04:26:23.326Z,98.00
2023-05-05T04:28:51.682Z,97.82
2023-05-05T04:31:19.546Z,97.16
2023-05-05T04:33:47.355Z,95.86
2023-05-05T04:36:16.453Z,94.65
2023-05-05T04:38:43.603Z,94.25
2023-05-05T04:41:10.781Z,93.74
2023-05-05T04:43:40.110Z,93.57
2023-05-05T04:46:07.358Z,94.28
2023-05-05T04:48:36.372Z,93.85
2023-05-05T04:51:04.681Z,92.49
2023-05-05T04:53:33.513Z,91.61
2023-05-05T04:56:00.976Z,92.00
2023-05-05T04:58:28.230Z,93.09
2023-05-05T05:00:55.882Z,93.64
2023-05-05T05:03:23.597Z,94.02
2023-05-05T05:05:51.019Z,92.58
2023-05-05T05:08:18.262Z,91.96
2023-05-05T05:10:46.833Z,90.63
2023-05-05T05:13:14.143Z,89.66
2023-05-05T05:15:41.845Z,88.46
2023-05-05T05:18:09.079Z,87.72
2023-05-05T05:20:36.310Z,86.56
2023-05-05T05:23:03.740Z,85.93
2023-05-05T05:25:33.394Z,84.99
2023-05-05T05:28:10.104Z,85.07
2023-05-05T05:30:43.327Z,84.82
2023-05-05T05:33:11.785Z,84.54
2023-05-05T05:35:39.998Z,82.77
2023-05-05T05:38:07.838Z,82.48
2023-05-05T05:40:35.678Z,82.24
2023-05-05T05:43:05.913Z,81.61
2023-05-05T05:45:37.943Z,82.09
2023-05-05T05:48:06.833Z,78.71
2023-05-05T05:50:34.173Z,79.23
2023-05-05T05:53:01.319Z,77.15
2023-05-05T05:55:29.653Z,76.34
2023-05-05T05:57:57.049Z,74.49
2023-05-05T06:00:26.265Z,75.63
2023-05-05T06:03:00.776Z,76.82
2023-05-05T06:05:32.320Z,76.73
2023-05-05T06:07:59.905Z,77.37
2023-05-05T06:10:28.687Z,75.18
2023-05-05T06:13:02.410Z,73.70
2023-05-05T06:15:33.384Z,73.31
2023-05-05T06:18:02.398Z,75.13
2023-05-05T06:20:29.645Z,73.35
2023-05-05T06:22:56.882Z,73.81
2023-05-05T06:25:24.878Z,73.38
2023-05-05T06:27:52.728Z,72.47
2023-05-05T06:30:19.981Z,70.47
2023-05-05T06:32:48.564Z,69.42
2023-05-05T06:35:15.977Z,69.44
2023-05-05T06:37:43.116Z,70.43
2023-05-05T06:40:10.932Z,67.99
2023-05-05T06:42:38.164Z,68.83
2023-05-05T06:45:09.264Z,68.10
2023-05-05T06:47:36.696Z,68.83
2023-05-05T06:50:06.946Z,69.22
2023-05-05T06:52:34.357Z,67.98
2023-05-05T06:55:01.570Z,65.11
2023-05-05T06:57:28.720Z,65.93
2023-05-05T06:59:55.902Z,67.35
2023-05-05T07:02:26.717Z,66.05
2023-05-05T07:04:54.144Z,64.94
2023-05-05T07:07:22.764Z,63.84
2023-05-05T07:09:49.950Z,63.60
2023-05-05T07:12:17.131Z,61.92
2023-05-05T07:14:46.336Z,60.96
2023-05-05T07:17:13.504Z,59.49
2023-05-05T07:19:40.641Z,56.94
2023-05-05T07:22:07.835Z,57.64
2023-05-05T07:24:36.328Z,56.18
2023-05-05T07:27:03.720Z,54.36
2023-05-05T07:29:30.985Z,54.86
2023-05-05T07:31:58.194Z,55.04
2023-05-05T07:34:25.378Z,52.96
2023-05-05T07:36:52.516Z,53.38
2023-05-05T07:39:19.691Z,54.73
2023-05-05T07:41:48.201Z,53.04
2023-05-05T07:44:15.417Z,53.61
2023-05-05T07:46:42.612Z,52.44
2023-05-05T07:49:09.773Z,53.32
2023-05-05T07:51:36.944Z,53.49
2023-05-05T07:54:04.414Z,53.70
2023-05-05T07:56:31.747Z,55.23
2023-05-05T07:59:00.306Z,53.92
2023-05-05T08:01:27.450Z,54.52
2023-05-05T08:03:54.676Z,55.07
2023-05-05T08:06:21.832Z,54.74
2023-05-05T08:08:49.472Z,54.22
2023-05-05T08:11:17.097Z,54.85
2023-05-05T08:13:44.274Z,54.21
2023-05-05T08:16:12.903Z,55.49
2023-05-05T08:18:40.562Z,53.43
2023-05-05T08:21:09.002Z,54.89
2023-05-05T08:23:36.538Z,55.70
2023-05-05T08:26:04.385Z,52.84
2023-05-05T08:28:31.565Z,53.55
2023-05-05T08:30:58.928Z,51.70
2023-05-05T08:33:27.465Z,52.09
2023-05-05T08:35:54.636Z,52.84
2023-05-05T08:38:21.811Z,50.56
2023-05-05T08:40:51.221Z,51.91
2023-05-05T08:43:19.250Z,51.37
2023-05-05T08:45:46.999Z,50.44
2023-05-05T08:48:18.736Z,49.92
2023-05-05T08:50:49.783Z,50.54
2023-05-05T08:53:20.562Z,50.87
2023-05-05T08:55:51.069Z,51.79
2023-05-05T08:58:18.814Z,52.48
2023-05-05T09:00:46.207Z,53.39
2023-05-05T09:03:14.517Z,53.18
2023-05-05T09:05:42.919Z,53.16
2023-05-05T09:08:11.849Z,52.39
2023-05-05T09:10:40.855Z,54.54
2023-05-05T09:13:08.135Z,53.88
2023-05-05T09:15:35.367Z,53.45
2023-05-05T09:18:02.723Z,53.34
2023-05-05T09:20:33.991Z,53.41
2023-05-05T09:23:08.632Z,53.87
2023-05-05T09:25:37.944Z,54.39
2023-05-05T09:28:09.323Z,54.69
2023-05-05T09:30:36.558Z,54.67
2023-05-05T09:33:04.101Z,54.70
2023-05-05T09:35:49.870Z,53.94
2023-05-05T09:38:17.530Z,54.43
2023-05-05T09:40:47.198Z,55.42
2023-05-05T09:43:15.162Z,54.47
2023-05-05T09:45:42.915Z,54.37
2023-05-05T09:48:23.856Z,53.32
2023-05-05T09:50:51.188Z,52.84
2023-05-05T09:53:18.824Z,52.90
2023-05-05T09:55:54.414Z,52.16
2023-05-05T09:58:23.438Z,51.90
2023-05-05T10:00:51.340Z,53.36
2023-05-05T10:03:18.904Z,51.68
2023-05-05T10:05:50.604Z,51.73
2023-05-05T10:08:19.254Z,51.08
2023-05-05T10:10:52.896Z,50.68
2023-05-05T10:13:23.431Z,51.15
2023-05-05T10:15:51.998Z,51.13
2023-05-05T10:18:21.082Z,49.91
2023-05-05T10:20:51.756Z,50.79
2023-05-05T10:23:20.384Z,50.62
2023-05-05T10:25:53.404Z,51.97
2023-05-05T10:28:29.169Z,49.49
2023-05-05T10:30:58.281Z,49.58
2023-05-05T10:33:34.059Z,49.66
2023-05-05T10:36:03.235Z,49.42
2023-05-05T10:38:31.778Z,48.83
2023-05-05T10:41:00.398Z,48.79
2023-05-05T10:43:29.827Z,48.65
2023-05-05T10:45:58.003Z,50.09
2023-05-05T10:48:33.824Z,51.00
2023-05-05T10:51:13.183Z,51.87
2023-05-05T10:53:49.453Z,51.52
2023-05-05T10:56:23.531Z,49.59
2023-05-05T10:58:59.830Z,51.92
2023-05-05T11:01:29.477Z,51.93
2023-05-05T11:04:21.856Z,51.67
2023-05-05T11:07:23.029Z,50.05
2023-05-05T11:09:57.705Z,49.23
2023-05-05T11:12:24.931Z,48.87
2023-05-05T11:15:29.546Z,46.76
2023-05-05T11:17:59.349Z,47.20
2023-05-05T11:21:00.061Z,46.38
2023-05-05T11:23:28.165Z,47.46
2023-05-05T11:25:56.260Z,45.66
2023-05-05T11:28:25.307Z,47.31
2023-05-05T11:31:18.641Z,46.42
2023-05-05T11:33:47.371Z,48.28
2023-05-05T11:36:15.557Z,45.82
2023-05-05T11:39:01.575Z,46.67
2023-05-05T11:42:03.774Z,43.65
2023-05-05T11:44:34.905Z,44.21
2023-05-05T11:47:25.290Z,45.12
2023-05-05T11:49:53.871Z,45.58
2023-05-05T11:52:24.348Z,45.78
2023-05-05T11:54:51.507Z,46.31
2023-05-05T11:57:20.973Z,45.24
2023-05-05T11:59:54.106Z,44.18
2023-05-05T12:02:22.217Z,44.78
2023-05-05T12:04:50.519Z,47.43
2023-05-05T12:07:20.525Z,46.00
2023-05-05T12:09:49.353Z,43.17
2023-05-05T12:12:17.299Z,43.53
2023-05-05T12:14:45.898Z,43.91
2023-05-05T12:17:13.334Z,44.37
2023-05-05T12:19:47.811Z,42.77
2023-05-05T12:22:20.890Z,40.46
2023-05-05T12:24:55.886Z,41.25
2023-05-05T12:27:23.979Z,40.66
2023-05-05T12:29:51.399Z,39.50
2023-05-05T12:32:19.906Z,38.02
2023-05-05T12:34:47.858Z,38.16
2023-05-05T12:37:15.420Z,39.22
2023-05-05T12:39:43.961Z,36.48
2023-05-05T12:42:11.217Z,37.68
2023-05-05T12:44:39.481Z,37.32
2023-05-05T12:47:07.266Z,40.46
2023-05-05T12:49:45.798Z,39.93
2023-05-05T12:52:13.177Z,38.90
2023-05-05T12:54:55.803Z,38.96
2023-05-05T12:57:23.527Z,38.02
2023-05-05T12:59:51.262Z,40.04
2023-05-05T13:02:19.529Z,38.84
2023-05-05T13:04:51.353Z,39.51
2023-05-05T13:07:20.269Z,37.85
2023-05-05T13:09:48.457Z,38.79
2023-05-05T13:12:17.999Z,38.21
2023-05-05T13:14:45.487Z,38.29
2023-05-05T13:17:13.067Z,38.64
2023-05-05T13:19:40.651Z,39.29
2023-05-05T13:22:08.801Z,39.23
2023-05-05T13:24:49.743Z,40.11
2023-05-05T13:27:20.806Z,39.45
2023-05-05T13:29:48.082Z,39.11
2023-05-05T13:32:15.291Z,39.39
2023-05-05T13:34:42.484Z,42.09
2023-05-05T13:37:09.753Z,40.98
2023-05-05T13:39:36.911Z,42.07
2023-05-05T13:42:04.507Z,41.24
2023-05-05T13:44:33.045Z,39.18
2023-05-05T13:47:00.315Z,37.93
2023-05-05T13:49:27.576Z,40.02
2023-05-05T13:51:54.695Z,40.83
2023-05-05T13:54:21.896Z,41.05
2023-05-05T13:56:49.078Z,40.50
2023-05-05T13:59:16.210Z,40.96
2023-05-05T14:01:44.700Z,39.56
2023-05-05T14:04:11.901Z,40.58
2023-05-05T14:06:39.148Z,41.06
2023-05-05T14:09:06.630Z,38.55
2023-05-05T14:11:33.861Z,39.51
2023-05-05T14:14:01.053Z,38.09
2023-05-05T14:16:28.215Z,41.70
2023-05-05T14:18:56.766Z,38.22
2023-05-05T14:21:23.976Z,37.42
2023-05-05T14:23:51.123Z,37.61
2023-05-05T14:26:18.265Z,38.31
2023-05-05T14:28:46.321Z,39.08
2023-05-05T14:31:15.101Z,38.94
2023-05-05T14:33:42.233Z,38.32
2023-05-05T14:36:10.825Z,38.86
2023-05-05T14:38:38.160Z,39.37
2023-05-05T14:41:05.392Z,37.92
2023-05-05T14:43:32.874Z,37.95
2023-05-05T14:46:00.182Z,37.07
2023-05-05T14:48:27.860Z,37.32
2023-05-05T14:50:55.082Z,36.30
2023-05-05T14:53:23.633Z,37.96
2023-05-05T14:55:50.766Z,38.39
2023-05-05T14:58:17.900Z,40.05
2023-05-05T15:00:45.079Z,39.20
2023-05-05T15:03:12.330Z,39.52
2023-05-05T15:05:39.561Z,41.56
2023-05-05T15:11:55.909Z,42.57
2023-05-05T15:14:23.131Z,42.98
2023-05-05T15:16:50.299Z,43.25
2023-05-05T15:19:17.463Z,43.40
2023-05-05T15:21:44.650Z,44.30
2023-05-05T15:24:11.786Z,44.16
2023-05-05T15:26:38.954Z,43.29
2023-05-05T15:29:07.529Z,45.21
2023-05-05T15:31:34.723Z,45.20
2023-05-05T15:34:01.953Z,44.56
2023-05-05T15:36:30.682Z,45.75
2023-05-05T15:38:57.827Z,43.76
2023-05-05T15:41:24.957Z,45.82
2023-05-05T15:43:52.110Z,47.22
2023-05-05T15:46:20.683Z,46.62
2023-05-05T15:48:47.849Z,46.29
2023-05-05T15:51:15.033Z,46.55
2023-05-05T15:53:42.207Z,46.96
2023-05-05T15:56:09.412Z,48.84
2023-05-05T15:58:36.567Z,52.02
2023-05-05T16:01:03.828Z,56.27
2023-05-05T16:03:32.527Z,64.13
2023-05-05T16:05:59.765Z,69.54
2023-05-05T16:08:26.902Z,72.81
2023-05-05T16:10:54.644Z,71.50
2023-05-05T16:13:21.855Z,78.60
2023-05-05T16:15:49.040Z,79.82
2023-05-05T16:18:16.172Z,83.78
2023-05-05T16:20:44.762Z,87.02
2023-05-05T16:23:11.927Z,87.39
2023-05-05T16:25:39.120Z,88.51
2023-05-05T16:28:06.278Z,89.26
2023-05-05T16:30:33.489Z,90.50
2023-05-05T16:33:00.730Z,88.74
2023-05-05T16:35:27.909Z,89.28
2023-05-05T16:37:56.422Z,80.72
2023-05-05T16:40:23.796Z,86.42
2023-05-05T16:42:50.985Z,84.45
2023-05-05T16:45:18.159Z,87.20
2023-05-05T16:47:45.384Z,92.30
2023-05-05T16:50:12.590Z,93.05
2023-05-05T16:52:39.711Z,92.86
2023-05-05T16:55:09.196Z,92.03
2023-05-05T16:57:36.556Z,93.33
2023-05-05T17:00:04.530Z,95.84
2023-05-05T17:02:31.794Z,94.79
2023-05-05T17:04:59.105Z,93.66
2023-05-05T17:07:26.441Z,92.37
2023-05-05T17:09:53.595Z,95.52
2023-05-05T17:12:22.076Z,96.50
2023-05-05T17:14:49.239Z,96.39
2023-05-05T17:17:16.547Z,98.50
2023-05-05T17:19:43.751Z,97.93
2023-05-05T17:22:10.966Z,98.64
2023-05-05T17:24:38.140Z,99.76
2023-05-05T17:27:05.275Z,99.12
2023-05-05T17:29:33.856Z,97.40
2023-05-05T17:32:01.072Z,97.06
2023-05-05T17:34:28.255Z,95.71
2023-05-05T17:36:55.406Z,96.92
2023-05-05T17:39:22.607Z,97.22
2023-05-05T17:41:49.767Z,98.23
2023-05-05T17:44:16.953Z,99.21
2023-05-05T17:46:45.453Z,100.00
2023-05-05T17:49:12.950Z,100.00
2023-05-05T17:51:40.161Z,100.00
2023-05-05T17:54:07.830Z,100.00
2023-05-05T17:56:35.104Z,100.00
2023-05-05T17:59:02.441Z,100.00
2023-05-05T18:01:29.669Z,100.00
2023-05-05T18:03:58.258Z,100.00
2023-05-05T18:06:25.641Z,100.00
2023-05-05T18:08:53.003Z,100.00
2023-05-05T18:11:20.187Z,100.00
2023-05-05T18:13:47.441Z,100.00
2023-05-05T18:16:14.665Z,100.00
2023-05-05T18:18:41.934Z,100.00
2023-05-05T18:21:10.549Z,100.00
2023-05-05T18:23:38.148Z,100.00
2023-05-05T18:26:05.887Z,100.00
2023-05-05T18:28:33.077Z,100.00
2023-05-05T18:31:00.357Z,100.00
2023-05-05T18:33:27.787Z,100.00
2023-05-05T18:35:55.173Z,100.00
2023-05-05T18:38:23.943Z,100.00
2023-05-05T18:40:51.312Z,100.00
2023-05-05T18:43:18.484Z,100.00
2023-05-05T18:45:45.895Z,100.00
2023-05-05T18:48:13.165Z,100.00
2023-05-05T18:50:40.382Z,100.00
2023-05-05T18:53:08.656Z,100.00
2023-05-05T18:55:37.299Z,100.00
2023-05-05T18:58:04.505Z,100.00
2023-05-05T19:00:31.695Z,100.00
2023-05-05T19:02:58.965Z,100.00
2023-05-05T19:05:26.965Z,100.00
2023-05-05T19:07:54.172Z,100.00
2023-05-05T19:10:21.525Z,100.00
2023-05-05T19:12:50.116Z,100.00
2023-05-05T19:15:17.620Z,100.00
2023-05-05T19:17:44.840Z,100.00
2023-05-05T19:20:12.063Z,100.00
2023-05-05T19:22:39.599Z,100.00
2023-05-05T19:25:07.590Z,100.00
2023-05-05T19:27:35.147Z,100.00
2023-05-05T19:30:04.146Z,100.00
2023-05-05T19:32:31.355Z,100.00
2023-05-05T19:34:58.666Z,100.00
2023-05-05T19:37:26.305Z,100.00
2023-05-05T20:07:28.544Z,100.00
2023-05-05T20:09:55.960Z,100.00
2023-05-05T20:12:23.336Z,100.00
2023-05-05T20:14:50.486Z,100.00
2023-05-05T20:17:17.657Z,100.00
2023-05-05T20:19:44.809Z,100.00
2023-05-05T20:22:12.011Z,100.00
2023-05-05T20:24:40.509Z,100.00
2023-05-05T20:27:07.681Z,100.00
2023-05-05T20:29:34.864Z,100.00
2023-05-05T20:32:02.221Z,100.00
2023-05-05T20:34:29.480Z,100.00
2023-05-05T20:36:56.893Z,100.00
2023-05-05T20:39:24.108Z,100.00
2023-05-05T20:41:52.672Z,100.00
2023-05-05T20:44:19.824Z,100.00
2023-05-05T20:46:47.028Z,100.00
2023-05-05T20:49:14.258Z,100.00
2023-05-05T20:51:41.426Z,100.00
2023-05-05T20:54:08.595Z,100.00
2023-05-05T20:56:35.733Z,100.00
2023-05-05T20:59:04.257Z,100.00
2023-05-05T21:01:31.548Z,100.00
2023-05-05T21:03:58.770Z,100.00
2023-05-05T21:06:25.984Z,100.00
2023-05-05T21:08:53.150Z,100.00
2023-05-05T21:11:20.356Z,100.00
2023-05-05T21:13:47.541Z,100.00
2023-05-05T21:16:16.129Z,100.00
2023-05-05T21:18:43.285Z,100.00
2023-05-05T21:21:10.460Z,100.00
2023-05-05T21:23:37.612Z,100.00
2023-05-05T21:26:05.015Z,100.00
2023-05-05T21:28:32.203Z,100.00
2023-05-05T21:31:19.906Z,100.00
2023-05-05T21:33:47.994Z,100.00
2023-05-05T21:36:15.274Z,100.00
2023-05-05T21:38:42.485Z,100.00
2023-05-05T21:41:09.639Z,100.00
2023-05-05T21:43:36.838Z,100.00
2023-05-05T21:46:05.222Z,100.00
2023-05-05T21:48:32.674Z,100.00
2023-05-05T21:51:01.225Z,100.00
2023-05-05T21:53:28.482Z,100.00
2023-05-05T21:55:55.653Z,100.00
2023-05-05T21:58:23.573Z,100.00
2023-05-05T22:00:50.846Z,100.00
2023-05-05T22:03:18.200Z,100.00
2023-05-05T22:05:45.426Z,100.00
2023-05-05T22:08:14.031Z,100.00
2023-05-05T22:10:41.170Z,100.00
2023-05-05T22:13:08.439Z,100.00
2023-05-05T22:15:45.958Z,100.00
2023-05-05T22:18:15.087Z,100.00
2023-05-05T22:20:42.563Z,100.00
2023-05-05T22:23:09.741Z,100.00
2023-05-05T22:25:38.259Z,100.00
2023-05-05T22:28:05.552Z,100.00
2023-05-05T22:30:32.885Z,100.00
2023-05-05T22:33:00.059Z,100.00
2023-05-05T22:35:27.424Z,100.00
2023-05-05T22:37:54.662Z,100.00
2023-05-05T22:40:21.835Z,100.00
2023-05-05T22:42:50.336Z,100.00
2023-05-05T22:45:17.740Z,100.00
2023-05-05T22:47:44.924Z,100.00
2023-05-05T22:50:12.144Z,100.00
2023-05-05T22:52:39.305Z,100.00
2023-05-05T22:55:06.890Z,100.00
2023-05-05T22:57:34.862Z,100.00
2023-05-05T23:00:04.904Z,100.00
2023-05-05T23:02:32.121Z,100.00
2023-05-05T23:04:59.307Z,100.00
2023-05-05T23:07:26.584Z,100.00
2023-05-05T23:09:53.956Z,100.00
2023-05-05T23:12:21.372Z,100.00
2023-05-05T23:14:48.532Z,100.00
2023-05-05T23:17:17.064Z,100.00
2023-05-05T23:19:47.261Z,100.00
2023-05-05T23:22:14.467Z,100.00
2023-05-05T23:24:41.680Z,100.00
2023-05-05T23:27:08.881Z,100.00
2023-05-05T23:29:36.123Z,100.00
2023-05-05T23:32:03.333Z,100.00
2023-05-05T23:34:31.840Z,100.00
2023-05-05T23:36:59.005Z,100.00
2023-05-05T23:39:26.227Z,100.00
2023-05-05T23:41:53.375Z,100.00
2023-05-05T23:44:20.538Z,100.00
2023-05-05T23:46:47.678Z,100.00
2023-05-05T23:49:14.921Z,100.00
2023-05-05T23:51:43.546Z,100.00
2023-05-05T23:54:10.748Z,100.00
2023-05-05T23:56:37.873Z,100.00
2023-05-05T23:59:05.043Z,100.00
